createdAt,value
2022-08-25T00:02:13.039Z,2.43
2022-08-25T00:04:40.295Z,2.30
2022-08-25T00:07:07.880Z,2.57
2022-08-25T00:09:35.921Z,1.90
2022-08-25T00:12:03.715Z,2.77
2022-08-25T00:14:34.105Z,2.00
2022-08-25T00:17:01.897Z,2.33
2022-08-25T00:19:32.216Z,2.33
2022-08-25T00:22:00.696Z,2.20
2022-08-25T00:24:28.479Z,2.00
2022-08-25T00:26:57.837Z,2.60
2022-08-25T00:29:26.350Z,2.63
2022-08-25T00:31:53.869Z,2.50
2022-08-25T00:34:25.714Z,2.43
2022-08-25T00:36:52.860Z,2.33
2022-08-25T00:39:21.242Z,2.90
2022-08-25T00:41:50.262Z,2.40
2022-08-25T00:44:18.712Z,2.60
2022-08-25T00:46:51.247Z,2.80
2022-08-25T00:49:31.492Z,2.23
2022-08-25T00:52:14.914Z,2.40
2022-08-25T00:54:47.585Z,2.53
2022-08-25T00:57:18.141Z,2.60
2022-08-25T00:59:48.802Z,2.60
2022-08-25T01:02:17.348Z,2.70
2022-08-25T01:04:48.968Z,2.17
2022-08-25T01:07:18.555Z,2.80
2022-08-25T01:09:47.761Z,2.80
2022-08-25T01:12:16.198Z,2.63
2022-08-25T01:14:45.900Z,2.97
2022-08-25T01:17:13.957Z,2.97
2022-08-25T01:19:40.762Z,2.97
2022-08-25T01:22:07.481Z,3.03
2022-08-25T01:24:44.851Z,2.90
2022-08-25T01:27:11.850Z,2.40
2022-08-25T01:29:39.527Z,2.70
2022-08-25T01:32:10.210Z,3.17
2022-08-25T01:34:40.546Z,2.83
2022-08-25T01:37:08.158Z,2.80
2022-08-25T01:39:38.703Z,2.70
2022-08-25T01:42:11.357Z,2.90
2022-08-25T01:44:41.864Z,2.87
2022-08-25T01:47:08.962Z,2.80
2022-08-25T01:49:35.839Z,3.23
2022-08-25T01:52:02.360Z,3.50
2022-08-25T01:54:28.909Z,3.10
2022-08-25T01:56:55.578Z,2.80
2022-08-25T01:59:24.141Z,3.33
2022-08-25T02:01:51.763Z,2.90
2022-08-25T02:04:26.864Z,3.17
2022-08-25T02:06:53.504Z,3.33
2022-08-25T02:09:20.052Z,3.43
2022-08-25T02:11:47.810Z,3.60
2022-08-25T02:14:15.521Z,3.30
2022-08-25T02:16:46.078Z,3.20
2022-08-25T02:19:12.753Z,3.60
2022-08-25T02:21:39.750Z,2.97
2022-08-25T02:24:07.580Z,3.20
2022-08-25T02:26:34.455Z,3.27
2022-08-25T02:29:01.210Z,3.43
2022-08-25T02:31:28.800Z,3.30
2022-08-25T02:33:57.195Z,2.80
2022-08-25T02:36:24.483Z,3.73
2022-08-25T02:38:51.419Z,3.50
2022-08-25T02:41:21.462Z,3.23
2022-08-25T02:43:48.854Z,3.23
2022-08-25T02:46:17.041Z,3.00
2022-08-25T02:48:44.499Z,3.50
2022-08-25T02:51:12.258Z,3.40
2022-08-25T02:53:41.781Z,3.77
2022-08-25T02:56:11.174Z,4.03
2022-08-25T02:58:40.002Z,4.07
2022-08-25T03:01:07.648Z,3.50
2022-08-25T03:03:39.230Z,4.20
2022-08-25T03:06:08.584Z,4.00
2022-08-25T03:08:36.289Z,3.77
2022-08-25T03:11:04.291Z,3.60
2022-08-25T03:13:32.154Z,3.87
2022-08-25T03:16:00.347Z,3.87
2022-08-25T03:18:27.585Z,3.50
2022-08-25T03:20:55.032Z,4.27
2022-08-25T03:23:21.672Z,3.90
2022-08-25T03:26:06.778Z,3.30
2022-08-25T03:28:33.882Z,3.53
2022-08-25T03:31:01.134Z,3.97
2022-08-25T03:33:29.501Z,3.63
2022-08-25T03:35:56.504Z,4.37
2022-08-25T03:38:25.239Z,3.50
2022-08-25T03:40:52.752Z,4.00
2022-08-25T03:43:19.826Z,4.33
2022-08-25T03:45:47.669Z,3.53
2022-08-25T03:48:16.083Z,3.70
2022-08-25T03:50:51.734Z,4.27
2022-08-25T03:53:19.716Z,4.27
2022-08-25T03:55:46.698Z,4.03
2022-08-25T03:58:13.491Z,3.73
2022-08-25T04:00:40.820Z,3.80
2022-08-25T04:03:07.811Z,4.00
2022-08-25T04:05:35.214Z,4.10
2022-08-25T04:08:02.063Z,4.07
2022-08-25T04:10:29.281Z,3.50
2022-08-25T04:12:56.316Z,4.33
2022-08-25T04:15:23.929Z,4.50
2022-08-25T04:17:55.350Z,4.37
2022-08-25T04:20:22.023Z,3.80
2022-08-25T04:22:48.648Z,4.40
2022-08-25T04:25:15.280Z,4.10
2022-08-25T04:27:42.149Z,4.07
2022-08-25T04:30:09.844Z,4.50
2022-08-25T04:32:37.338Z,4.93
2022-08-25T04:35:05.410Z,4.30
2022-08-25T04:37:33.487Z,4.43
2022-08-25T04:40:00.407Z,4.83
2022-08-25T04:42:27.354Z,4.33
2022-08-25T04:44:54.551Z,4.77
2022-08-25T04:47:21.517Z,4.90
2022-08-25T04:49:48.362Z,4.60
2022-08-25T04:52:15.129Z,4.60
2022-08-25T04:54:42.344Z,5.20
2022-08-25T04:57:09.478Z,4.80
2022-08-25T04:59:36.243Z,5.40
2022-08-25T05:02:05.020Z,5.00
2022-08-25T05:04:33.399Z,5.23
2022-08-25T05:07:00.719Z,4.80
2022-08-25T05:09:28.125Z,5.10
2022-08-25T05:11:55.270Z,4.57
2022-08-25T05:14:25.680Z,4.50
2022-08-25T05:16:56.498Z,4.53
2022-08-25T05:19:24.091Z,4.93
2022-08-25T05:21:51.598Z,4.00
2022-08-25T05:24:18.640Z,4.30
2022-08-25T05:26:45.250Z,4.13
2022-08-25T05:29:12.019Z,4.43
2022-08-25T05:31:43.187Z,4.30
2022-08-25T05:34:12.172Z,4.17
2022-08-25T05:36:43.074Z,4.47
2022-08-25T05:39:10.461Z,6.03
2022-08-25T05:41:37.390Z,4.30
2022-08-25T05:44:04.709Z,5.03
2022-08-25T05:46:31.612Z,4.87
2022-08-25T05:48:58.890Z,4.97
2022-08-25T05:51:26.223Z,4.83
2022-08-25T05:53:52.945Z,4.47
2022-08-25T05:56:20.050Z,4.67
2022-08-25T05:58:47.707Z,3.57
2022-08-25T06:01:45.391Z,4.50
2022-08-25T06:04:13.333Z,4.23
2022-08-25T06:06:40.531Z,4.47
2022-08-25T06:09:09.356Z,4.93
2022-08-25T06:11:39.658Z,4.20
2022-08-25T06:14:07.534Z,5.00
2022-08-25T06:16:34.273Z,4.20
2022-08-25T06:19:01.223Z,4.23
2022-08-25T06:21:27.943Z,4.30
2022-08-25T06:23:54.598Z,4.43
2022-08-25T06:26:21.714Z,4.97
2022-08-25T06:28:51.723Z,5.13
2022-08-25T06:31:19.732Z,3.93
2022-08-25T06:33:46.670Z,3.80
2022-08-25T06:36:13.487Z,4.10
2022-08-25T06:38:40.238Z,3.67
2022-08-25T06:41:08.310Z,4.13
2022-08-25T06:43:35.109Z,3.80
2022-08-25T06:46:17.601Z,3.60
2022-08-25T06:48:44.376Z,3.40
2022-08-25T06:51:14.336Z,4.27
2022-08-25T06:53:42.742Z,3.60
2022-08-25T06:56:10.732Z,3.70
2022-08-25T06:58:37.999Z,4.10
2022-08-25T07:01:19.822Z,4.20
2022-08-25T07:03:48.483Z,4.13
2022-08-25T07:06:18.227Z,4.50
2022-08-25T07:08:46.362Z,4.70
2022-08-25T07:11:15.910Z,5.07
2022-08-25T07:13:44.294Z,5.17
2022-08-25T07:16:11.397Z,5.07
2022-08-25T07:18:38.739Z,5.17
2022-08-25T07:21:05.696Z,5.10
2022-08-25T07:23:36.490Z,4.80
2022-08-25T07:26:33.572Z,5.60
2022-08-25T07:28:59.657Z,5.27
2022-08-25T07:31:29.337Z,4.10
2022-08-25T07:34:16.414Z,4.90
2022-08-25T07:36:43.408Z,5.17
2022-08-25T07:39:11.033Z,5.17
2022-08-25T07:41:41.081Z,5.10
2022-08-25T07:44:10.552Z,5.40
2022-08-25T07:46:37.795Z,5.90
2022-08-25T07:49:05.276Z,5.67
2022-08-25T07:51:44.179Z,6.37
2022-08-25T07:54:34.190Z,6.10
2022-08-25T07:57:01.951Z,6.20
2022-08-25T07:59:28.900Z,6.40
2022-08-25T08:01:55.550Z,6.23
2022-08-25T08:04:22.242Z,6.70
2022-08-25T08:06:48.805Z,6.73
2022-08-25T08:09:16.187Z,5.93
2022-08-25T08:11:53.645Z,6.50
2022-08-25T08:14:20.890Z,6.03
2022-08-25T08:16:47.491Z,6.50
2022-08-25T08:19:14.067Z,6.07
2022-08-25T08:21:40.936Z,6.20
2022-08-25T08:24:24.913Z,6.50
2022-08-25T08:26:59.080Z,5.80
2022-08-25T08:29:26.260Z,7.07
2022-08-25T08:31:53.247Z,6.13
2022-08-25T08:34:20.024Z,6.70
2022-08-25T08:36:51.903Z,6.73
2022-08-25T08:39:18.544Z,6.50
2022-08-25T08:42:17.313Z,6.50
2022-08-25T08:44:46.901Z,7.20
2022-08-25T08:47:47.410Z,6.33
2022-08-25T08:50:34.362Z,6.80
2022-08-25T08:53:09.767Z,6.27
2022-08-25T08:55:43.916Z,6.60
2022-08-25T08:58:21.166Z,5.90
2022-08-25T09:00:56.000Z,6.40
2022-08-25T09:03:39.733Z,7.43
2022-08-25T09:06:14.209Z,6.30
2022-08-25T09:08:44.878Z,6.37
2022-08-25T09:11:31.021Z,6.50
2022-08-25T09:14:10.389Z,6.10
2022-08-25T09:16:54.850Z,6.83
2022-08-25T09:19:48.048Z,6.73
2022-08-25T09:22:34.318Z,6.13
2022-08-25T09:25:52.585Z,7.17
2022-08-25T09:28:28.406Z,7.50
2022-08-25T09:31:03.233Z,6.70
2022-08-25T09:33:35.747Z,6.80
2022-08-25T09:36:05.991Z,7.07
2022-08-25T09:38:33.124Z,7.13
2022-08-25T09:41:01.908Z,6.57
2022-08-25T09:43:41.990Z,6.27
2022-08-25T09:46:08.564Z,7.00
2022-08-25T09:48:45.064Z,6.93
2022-08-25T09:51:20.944Z,6.87
2022-08-25T09:54:13.390Z,7.23
2022-08-25T09:56:55.281Z,6.90
2022-08-25T09:59:34.420Z,7.37
2022-08-25T10:02:28.817Z,6.73
2022-08-25T10:04:55.866Z,6.70
2022-08-25T10:07:28.737Z,6.67
2022-08-25T10:09:59.109Z,6.63
2022-08-25T10:12:43.270Z,6.00
2022-08-25T10:15:37.315Z,6.00
2022-08-25T10:18:25.796Z,6.13
2022-08-25T10:21:09.371Z,6.20
2022-08-25T10:23:46.623Z,5.73
2022-08-25T10:26:26.081Z,6.30
2022-08-25T10:29:07.540Z,6.67
2022-08-25T10:31:48.223Z,6.17
2022-08-25T10:34:53.658Z,5.40
2022-08-25T10:37:38.612Z,5.87
2022-08-25T10:40:16.476Z,5.00
2022-08-25T10:43:10.980Z,5.27
2022-08-25T10:45:57.098Z,5.37
2022-08-25T10:48:43.899Z,5.97
2022-08-25T10:51:31.488Z,5.17
2022-08-25T10:54:23.928Z,5.67
2022-08-25T10:57:14.790Z,5.53
2022-08-25T10:59:57.621Z,5.63
2022-08-25T11:02:34.155Z,5.50
2022-08-25T11:05:04.035Z,5.67
2022-08-25T11:07:37.885Z,5.50
2022-08-25T11:10:36.250Z,5.70
2022-08-25T11:13:11.245Z,5.07
2022-08-25T11:16:13.689Z,5.70
2022-08-25T11:18:50.837Z,5.90
2022-08-25T11:21:44.729Z,5.40
2022-08-25T11:24:54.201Z,5.10
2022-08-25T11:28:12.788Z,5.87
2022-08-25T11:30:40.886Z,5.13
2022-08-25T11:33:12.038Z,4.90
2022-08-25T11:35:46.667Z,5.40
2022-08-25T11:38:29.169Z,5.27
2022-08-25T11:41:16.709Z,5.53
2022-08-25T11:44:06.625Z,6.00
2022-08-25T11:46:42.187Z,6.23
2022-08-25T11:49:31.973Z,6.37
2022-08-25T11:52:02.978Z,5.83
2022-08-25T11:54:42.614Z,5.60
2022-08-25T11:57:27.523Z,6.20
2022-08-25T11:59:56.977Z,5.33
2022-08-25T12:02:50.422Z,5.77
2022-08-25T12:05:17.041Z,6.13
2022-08-25T12:08:18.732Z,5.60
2022-08-25T12:11:11.280Z,5.80
2022-08-25T12:13:47.570Z,5.50
2022-08-25T12:16:36.055Z,6.10
2022-08-25T12:19:49.351Z,6.93
2022-08-25T12:22:15.904Z,6.17
2022-08-25T12:24:48.008Z,6.30
2022-08-25T12:27:51.350Z,6.13
2022-08-25T12:30:21.203Z,6.07
2022-08-25T12:32:47.987Z,5.70
2022-08-25T12:35:24.694Z,6.03
2022-08-25T12:38:10.281Z,5.93
2022-08-25T12:40:43.292Z,5.90
2022-08-25T12:43:33.404Z,6.17
2022-08-25T12:46:26.200Z,6.30
2022-08-25T12:49:01.924Z,6.20
2022-08-25T12:51:51.910Z,6.80
2022-08-25T12:54:53.747Z,6.00
2022-08-25T12:57:41.968Z,6.47
2022-08-25T13:00:21.170Z,6.10
2022-08-25T13:02:56.872Z,5.80
2022-08-25T13:05:55.055Z,5.97
2022-08-25T13:08:36.981Z,6.30
2022-08-25T13:11:10.981Z,6.03
2022-08-25T13:13:46.496Z,6.00
2022-08-25T13:16:25.706Z,6.30
2022-08-25T13:18:59.055Z,6.10
2022-08-25T13:21:33.396Z,6.23
2022-08-25T13:24:05.954Z,5.80
2022-08-25T13:26:47.242Z,6.00
2022-08-25T13:29:18.612Z,5.77
2022-08-25T13:31:57.412Z,5.50
2022-08-25T13:34:34.241Z,5.50
2022-08-25T13:37:29.799Z,4.90
2022-08-25T13:40:25.863Z,5.47
2022-08-25T13:42:59.045Z,5.53
2022-08-25T13:45:31.929Z,4.77
2022-08-25T13:47:59.065Z,5.00
2022-08-25T13:50:26.407Z,6.10
2022-08-25T13:52:56.850Z,5.80
2022-08-25T13:55:28.608Z,6.03
2022-08-25T13:57:58.069Z,5.53
2022-08-25T14:00:38.636Z,5.27
2022-08-25T14:03:12.695Z,5.23
2022-08-25T14:05:42.330Z,5.27
2022-08-25T14:08:31.484Z,5.33
2022-08-25T14:11:14.566Z,5.53
2022-08-25T14:13:45.101Z,4.97
2022-08-25T14:16:22.768Z,5.80
2022-08-25T14:18:55.282Z,5.47
2022-08-25T14:21:27.982Z,5.23
2022-08-25T14:23:56.944Z,5.63
2022-08-25T14:26:24.547Z,5.60
2022-08-25T14:28:53.289Z,5.00
2022-08-25T14:31:31.296Z,5.30
2022-08-25T14:34:05.236Z,4.60
2022-08-25T14:36:34.469Z,5.37
2022-08-25T14:39:06.112Z,5.13
2022-08-25T14:41:38.678Z,5.10
2022-08-25T14:44:05.758Z,6.10
2022-08-25T14:46:36.386Z,5.37
2022-08-25T14:49:06.820Z,5.67
2022-08-25T14:51:34.094Z,5.33
2022-08-25T14:54:06.180Z,5.80
2022-08-25T14:56:33.933Z,5.60
2022-08-25T14:59:01.386Z,5.70
2022-08-25T15:01:31.737Z,5.27
2022-08-25T15:04:15.664Z,5.23
2022-08-25T15:06:43.758Z,4.83
2022-08-25T15:09:16.093Z,5.57
2022-08-25T15:11:45.645Z,5.50
2022-08-25T15:14:15.710Z,5.17
2022-08-25T15:16:47.707Z,5.37
2022-08-25T15:19:17.809Z,5.23
2022-08-25T15:21:46.758Z,4.63
2022-08-25T15:24:17.557Z,4.37
2022-08-25T15:26:56.658Z,4.60
2022-08-25T15:29:26.152Z,4.83
2022-08-25T15:31:53.005Z,5.03
2022-08-25T15:34:19.646Z,4.67
2022-08-25T15:36:46.608Z,4.80
2022-08-25T15:39:14.481Z,5.03
2022-08-25T15:41:42.745Z,5.73
2022-08-25T15:44:11.283Z,4.90
2022-08-25T15:46:41.690Z,4.63
2022-08-25T15:49:13.972Z,5.03
2022-08-25T15:51:47.547Z,4.67
2022-08-25T15:54:15.020Z,5.20
2022-08-25T15:56:43.109Z,5.20
2022-08-25T15:59:10.083Z,4.87
2022-08-25T16:01:37.070Z,5.53
2022-08-25T16:04:03.880Z,6.27
2022-08-25T16:06:31.526Z,5.33
2022-08-25T16:08:58.850Z,5.40
2022-08-25T16:11:28.006Z,4.93
2022-08-25T16:13:57.813Z,5.47
2022-08-25T16:16:26.857Z,4.93
2022-08-25T16:18:53.854Z,4.90
2022-08-25T16:21:29.060Z,5.60
2022-08-25T16:23:59.913Z,5.50
2022-08-25T16:26:29.426Z,5.10
2022-08-25T16:28:56.266Z,5.30
2022-08-25T16:31:24.031Z,5.50
2022-08-25T16:33:53.561Z,5.13
2022-08-25T16:36:27.122Z,5.80
2022-08-25T16:38:57.202Z,5.60
2022-08-25T16:41:27.111Z,4.97
2022-08-25T16:43:54.183Z,5.27
2022-08-25T16:46:23.911Z,5.53
2022-08-25T16:48:50.818Z,4.97
2022-08-25T16:51:19.450Z,5.23
2022-08-25T16:54:08.158Z,5.20
2022-08-25T16:56:36.978Z,5.63
2022-08-25T16:59:06.329Z,5.60
2022-08-25T17:01:36.188Z,5.60
2022-08-25T17:04:03.783Z,5.30
2022-08-25T17:06:35.291Z,4.93
2022-08-25T17:09:01.992Z,5.13
2022-08-25T17:11:34.949Z,5.30
2022-08-25T17:14:04.459Z,5.70
2022-08-25T17:16:37.857Z,5.00
2022-08-25T17:19:11.789Z,4.80
2022-08-25T17:21:45.050Z,4.73
2022-08-25T17:24:12.684Z,5.33
2022-08-25T17:26:41.646Z,4.90
2022-08-25T17:29:09.127Z,4.97
2022-08-25T17:31:39.667Z,4.90
2022-08-25T17:34:10.466Z,4.87
2022-08-25T17:36:38.074Z,4.77
2022-08-25T17:39:08.009Z,5.20
2022-08-25T17:41:34.905Z,5.30
2022-08-25T17:44:04.701Z,5.43
2022-08-25T17:46:31.374Z,5.80
2022-08-25T17:48:58.084Z,5.00
2022-08-25T17:51:25.268Z,4.90
2022-08-25T17:53:52.741Z,5.00
2022-08-25T17:56:22.270Z,5.07
2022-08-25T17:58:50.625Z,4.90
2022-08-25T18:01:29.455Z,4.80
2022-08-25T18:03:58.835Z,4.53
2022-08-25T18:06:29.337Z,5.10
2022-08-25T18:08:59.946Z,5.00
2022-08-25T18:11:28.657Z,5.00
2022-08-25T18:13:56.036Z,5.13
2022-08-25T18:16:24.493Z,4.83
2022-08-25T18:18:51.970Z,4.93
2022-08-25T18:21:20.473Z,5.10
2022-08-25T18:23:47.714Z,4.97
2022-08-25T18:26:15.776Z,5.13
2022-08-25T18:28:43.966Z,4.60
2022-08-25T18:31:12.009Z,4.40
2022-08-25T18:33:41.911Z,5.13
2022-08-25T18:36:09.583Z,4.50
2022-08-25T18:38:57.785Z,5.10
2022-08-25T18:41:26.285Z,4.97
2022-08-25T18:43:53.108Z,4.93
2022-08-25T18:46:22.665Z,5.30
2022-08-25T18:48:49.709Z,4.90
2022-08-25T18:51:22.877Z,5.23
2022-08-25T18:53:51.102Z,5.13
2022-08-25T18:56:22.359Z,4.77
2022-08-25T18:58:48.986Z,5.27
2022-08-25T19:01:17.429Z,5.77
2022-08-25T19:03:45.511Z,5.37
2022-08-25T19:06:12.393Z,5.00
2022-08-25T19:08:41.624Z,5.90
2022-08-25T19:11:09.613Z,5.30
2022-08-25T19:13:36.650Z,5.60
2022-08-25T19:16:20.366Z,5.47
2022-08-25T19:18:48.965Z,5.87
2022-08-25T19:21:22.589Z,5.87
2022-08-25T19:23:50.891Z,7.17
2022-08-25T19:26:18.485Z,6.33
2022-08-25T19:28:48.888Z,6.50
2022-08-25T19:31:18.164Z,6.23
2022-08-25T19:33:46.410Z,6.70
2022-08-25T19:36:14.293Z,6.57
2022-08-25T19:38:41.548Z,6.47
2022-08-25T19:41:10.483Z,6.10
2022-08-25T19:43:56.695Z,6.50
2022-08-25T19:46:36.119Z,6.50
2022-08-25T19:49:13.349Z,5.83
2022-08-25T19:51:44.141Z,6.37
2022-08-25T19:54:17.169Z,5.77
2022-08-25T19:56:54.231Z,6.40
2022-08-25T19:59:36.637Z,6.70
2022-08-25T20:02:12.707Z,6.77
2022-08-25T20:04:42.915Z,6.73
2022-08-25T20:07:17.236Z,6.87
2022-08-25T20:09:45.204Z,6.90
2022-08-25T20:12:12.546Z,6.93
2022-08-25T20:14:39.619Z,7.13
2022-08-25T20:17:13.653Z,7.13
2022-08-25T20:19:41.449Z,8.00
2022-08-25T20:22:11.203Z,7.07
2022-08-25T20:24:50.950Z,7.33
2022-08-25T20:27:25.626Z,7.63
2022-08-25T20:29:52.792Z,7.40
2022-08-25T20:32:19.907Z,7.53
2022-08-25T20:34:47.239Z,8.10
2022-08-25T20:37:13.915Z,7.73
2022-08-25T20:39:41.614Z,7.50
2022-08-25T20:42:08.629Z,7.57
2022-08-25T20:44:41.790Z,8.03
2022-08-25T20:47:10.550Z,7.87
2022-08-25T20:49:39.165Z,7.77
2022-08-25T20:52:06.753Z,7.27
2022-08-25T20:54:33.781Z,7.43
2022-08-25T20:57:00.520Z,7.67
2022-08-25T20:59:29.458Z,7.90
2022-08-25T21:01:56.497Z,7.63
2022-08-25T21:04:29.249Z,8.40
2022-08-25T21:06:57.644Z,7.97
2022-08-25T21:09:24.805Z,7.70
2022-08-25T21:11:53.220Z,8.17
2022-08-25T21:14:21.244Z,7.80
2022-08-25T21:16:48.846Z,8.33
2022-08-25T21:19:17.709Z,8.57
2022-08-25T21:21:54.004Z,7.93
2022-08-25T21:24:26.950Z,8.60
2022-08-25T21:26:55.804Z,8.50
2022-08-25T21:29:23.912Z,8.53
2022-08-25T21:31:51.098Z,8.67
2022-08-25T21:34:18.597Z,9.07
2022-08-25T21:36:46.494Z,8.03
2022-08-25T21:39:14.424Z,8.53
2022-08-25T21:41:43.001Z,9.07
2022-08-25T21:44:10.614Z,8.67
2022-08-25T21:46:37.951Z,8.63
2022-08-25T21:49:06.745Z,8.90
2022-08-25T21:51:40.797Z,8.07
2022-08-25T21:54:11.334Z,9.13
2022-08-25T21:56:42.348Z,8.27
2022-08-25T21:59:13.486Z,8.07
2022-08-25T22:01:41.155Z,8.30
2022-08-25T22:04:08.888Z,8.60
2022-08-25T22:06:35.962Z,8.23
2022-08-25T22:09:05.007Z,8.63
2022-08-25T22:11:33.941Z,8.83
2022-08-25T22:14:04.407Z,8.67
2022-08-25T22:16:33.348Z,10.10
2022-08-25T22:19:00.514Z,9.97
2022-08-25T22:21:28.301Z,9.33
2022-08-25T22:23:55.931Z,9.87
2022-08-25T22:26:24.172Z,8.83
2022-08-25T22:28:54.062Z,8.97
2022-08-25T22:31:21.185Z,8.43
2022-08-25T22:33:49.110Z,9.33
2022-08-25T22:36:19.045Z,9.00
2022-08-25T22:38:47.401Z,8.07
2022-08-25T22:41:19.130Z,9.00
2022-08-25T22:43:49.363Z,9.23
2022-08-25T22:46:19.069Z,9.13
2022-08-25T22:48:46.138Z,8.70
2022-08-25T22:51:15.816Z,8.77
2022-08-25T22:53:44.923Z,10.43
2022-08-25T22:56:13.340Z,10.57
2022-08-25T22:58:51.835Z,9.90
2022-08-25T23:01:19.729Z,10.53
2022-08-25T23:03:47.678Z,10.03
2022-08-25T23:06:22.140Z,10.10
2022-08-25T23:08:52.963Z,9.87
2022-08-25T23:11:21.205Z,9.67
2022-08-25T23:13:47.872Z,9.43
2022-08-25T23:16:14.977Z,11.00
2022-08-25T23:18:43.861Z,10.50
2022-08-25T23:21:31.513Z,9.53
2022-08-25T23:24:02.017Z,9.90
2022-08-25T23:26:29.301Z,9.20
2022-08-25T23:28:56.075Z,10.07
2022-08-25T23:31:22.671Z,9.33
2022-08-25T23:33:51.310Z,9.47
2022-08-25T23:36:19.423Z,9.40
2022-08-25T23:38:51.585Z,9.47
2022-08-25T23:41:21.297Z,9.13
2022-08-25T23:43:49.426Z,10.43
2022-08-25T23:46:18.615Z,9.30
2022-08-25T23:48:45.321Z,9.63
2022-08-25T23:51:12.679Z,9.60
2022-08-25T23:53:39.572Z,10.57
2022-08-25T23:56:06.417Z,9.27
2022-08-25T23:58:32.998Z,10.23
